sensor_id;sensor_type;location;lat;lon;timestamp;pressure;altitude;pressure_sealevel;temperature;humidity
75886;BME280;64561;44.018;10.144;2023-02-21T00:01:39;102445.53;;;10.94;84.86
75886;BME280;64561;44.018;10.144;2023-02-21T00:04:25;102433.09;;;10.84;85.24
75886;BME280;64561;44.018;10.144;2023-02-21T00:07:10;102443.63;;;10.90;84.92
75886;BME280;64561;44.018;10.144;2023-02-21T00:09:55;102432.72;;;10.94;85.11
75886;BME280;64561;44.018;10.144;2023-02-21T00:12:41;102428.63;;;10.97;84.85
75886;BME280;64561;44.018;10.144;2023-02-21T00:15:26;102433.72;;;10.97;84.65
75886;BME280;64561;44.018;10.144;2023-02-21T00:18:12;102430.25;;;10.95;84.96
75886;BME280;64561;44.018;10.144;2023-02-21T00:20:57;102420.00;;;10.95;84.77
75886;BME280;64561;44.018;10.144;2023-02-21T00:23:43;102420.00;;;10.95;84.81
75886;BME280;64561;44.018;10.144;2023-02-21T00:26:28;102419.84;;;10.92;84.99
75886;BME280;64561;44.018;10.144;2023-02-21T00:29:14;102421.88;;;10.99;85.01
75886;BME280;64561;44.018;10.144;2023-02-21T00:31:59;102425.41;;;11.02;85.01
75886;BME280;64561;44.018;10.144;2023-02-21T00:34:45;102415.38;;;10.88;85.39
75886;BME280;64561;44.018;10.144;2023-02-21T00:37:30;102421.59;;;10.93;85.39
75886;BME280;64561;44.018;10.144;2023-02-21T00:40:16;102421.00;;;10.99;85.08
75886;BME280;64561;44.018;10.144;2023-02-21T00:43:01;102412.31;;;11.13;84.66
75886;BME280;64561;44.018;10.144;2023-02-21T00:45:47;102416.91;;;11.03;84.58
75886;BME280;64561;44.018;10.144;2023-02-21T00:48:32;102424.34;;;10.98;84.40
75886;BME280;64561;44.018;10.144;2023-02-21T00:51:18;102424.31;;;10.96;84.26
75886;BME280;64561;44.018;10.144;2023-02-21T00:54:03;102418.38;;;10.97;84.12
75886;BME280;64561;44.018;10.144;2023-02-21T00:56:48;102416.63;;;10.96;84.01
75886;BME280;64561;44.018;10.144;2023-02-21T00:59:34;102410.53;;;10.94;83.57
75886;BME280;64561;44.018;10.144;2023-02-21T01:02:19;102409.66;;;10.94;83.82
75886;BME280;64561;44.018;10.144;2023-02-21T01:05:05;102410.38;;;10.91;83.35
75886;BME280;64561;44.018;10.144;2023-02-21T01:07:50;102410.34;;;10.90;83.14
75886;BME280;64561;44.018;10.144;2023-02-21T01:10:39;102411.13;;;10.89;83.82
75886;BME280;64561;44.018;10.144;2023-02-21T01:13:24;102418.06;;;10.91;83.73
75886;BME280;64561;44.018;10.144;2023-02-21T01:16:10;102415.59;;;10.93;83.91
75886;BME280;64561;44.018;10.144;2023-02-21T01:18:55;102418.00;;;10.90;83.25
75886;BME280;64561;44.018;10.144;2023-02-21T01:21:42;102407.81;;;10.91;83.31
75886;BME280;64561;44.018;10.144;2023-02-21T01:24:28;102412.94;;;10.91;83.18
75886;BME280;64561;44.018;10.144;2023-02-21T01:27:13;102406.09;;;10.90;83.05
75886;BME280;64561;44.018;10.144;2023-02-21T01:29:59;102403.91;;;10.80;83.61
75886;BME280;64561;44.018;10.144;2023-02-21T01:32:44;102403.66;;;10.75;84.06
75886;BME280;64561;44.018;10.144;2023-02-21T01:35:30;102401.53;;;10.85;83.54
75886;BME280;64561;44.018;10.144;2023-02-21T01:38:15;102398.53;;;10.93;83.04
75886;BME280;64561;44.018;10.144;2023-02-21T01:41:00;102401.25;;;10.79;83.58
75886;BME280;64561;44.018;10.144;2023-02-21T01:44:04;102394.38;;;10.78;83.41
75886;BME280;64561;44.018;10.144;2023-02-21T01:46:52;102394.97;;;10.72;84.05
75886;BME280;64561;44.018;10.144;2023-02-21T01:49:39;102395.91;;;10.74;84.21
75886;BME280;64561;44.018;10.144;2023-02-21T01:52:25;102393.81;;;10.83;84.11
75886;BME280;64561;44.018;10.144;2023-02-21T01:55:11;102384.50;;;10.85;84.09
75886;BME280;64561;44.018;10.144;2023-02-21T01:57:56;102384.63;;;10.88;83.57
75886;BME280;64561;44.018;10.144;2023-02-21T02:00:43;102385.22;;;10.83;84.15
75886;BME280;64561;44.018;10.144;2023-02-21T02:03:29;102373.91;;;10.78;84.67
75886;BME280;64561;44.018;10.144;2023-02-21T02:06:15;102373.03;;;10.77;84.43
75886;BME280;64561;44.018;10.144;2023-02-21T02:09:16;102369.78;;;10.81;83.66
75886;BME280;64561;44.018;10.144;2023-02-21T02:12:07;102370.81;;;10.85;83.57
75886;BME280;64561;44.018;10.144;2023-02-21T02:20:57;102352.88;;;10.85;84.12
75886;BME280;64561;44.018;10.144;2023-02-21T02:35:08;102346.66;;;10.97;84.16
75886;BME280;64561;44.018;10.144;2023-02-21T02:37:58;102344.19;;;10.99;84.52
75886;BME280;64561;44.018;10.144;2023-02-21T02:45:45;102340.06;;;11.03;84.47
75886;BME280;64561;44.018;10.144;2023-02-21T02:48:20;102340.94;;;11.03;84.78
75886;BME280;64561;44.018;10.144;2023-02-21T02:50:49;102339.34;;;11.05;84.67
75886;BME280;64561;44.018;10.144;2023-02-21T02:53:21;102337.59;;;11.04;84.63
75886;BME280;64561;44.018;10.144;2023-02-21T02:55:56;102334.94;;;11.03;84.64
75886;BME280;64561;44.018;10.144;2023-02-21T02:58:27;102338.97;;;10.97;84.79
75886;BME280;64561;44.018;10.144;2023-02-21T03:01:04;102333.84;;;10.97;84.97
75886;BME280;64561;44.018;10.144;2023-02-21T03:06:58;102342.34;;;10.96;84.85
75886;BME280;64561;44.018;10.144;2023-02-21T03:09:45;102341.91;;;11.05;84.69
75886;BME280;64561;44.018;10.144;2023-02-21T03:12:24;102341.31;;;11.11;84.79
75886;BME280;64561;44.018;10.144;2023-02-21T03:15:03;102338.38;;;11.03;84.99
75886;BME280;64561;44.018;10.144;2023-02-21T03:17:33;102341.91;;;11.05;84.85
75886;BME280;64561;44.018;10.144;2023-02-21T03:20:04;102340.75;;;10.98;85.10
75886;BME280;64561;44.018;10.144;2023-02-21T03:22:33;102335.94;;;10.87;85.71
75886;BME280;64561;44.018;10.144;2023-02-21T03:25:01;102337.66;;;10.88;85.46
75886;BME280;64561;44.018;10.144;2023-02-21T03:27:30;102329.69;;;10.82;85.63
75886;BME280;64561;44.018;10.144;2023-02-21T03:30:07;102332.94;;;10.78;85.79
75886;BME280;64561;44.018;10.144;2023-02-21T03:32:38;102332.25;;;10.82;85.44
75886;BME280;64561;44.018;10.144;2023-02-21T03:35:06;102321.00;;;10.78;85.46
75886;BME280;64561;44.018;10.144;2023-02-21T03:37:53;102325.84;;;10.72;86.00
75886;BME280;64561;44.018;10.144;2023-02-21T03:40:30;102324.56;;;10.64;86.43
75886;BME280;64561;44.018;10.144;2023-02-21T03:43:02;102322.53;;;10.57;86.58
75886;BME280;64561;44.018;10.144;2023-02-21T03:45:33;102321.72;;;10.58;85.90
75886;BME280;64561;44.018;10.144;2023-02-21T03:48:05;102325.44;;;10.64;85.31
75886;BME280;64561;44.018;10.144;2023-02-21T03:50:34;102325.41;;;10.81;85.66
75886;BME280;64561;44.018;10.144;2023-02-21T03:53:01;102327.22;;;10.83;85.27
75886;BME280;64561;44.018;10.144;2023-02-21T03:55:29;102323.75;;;10.83;85.40
75886;BME280;64561;44.018;10.144;2023-02-21T03:57:59;102319.47;;;10.82;85.50
75886;BME280;64561;44.018;10.144;2023-02-21T04:00:27;102327.22;;;10.83;85.59
75886;BME280;64561;44.018;10.144;2023-02-21T04:02:55;102324.00;;;10.87;85.39
75886;BME280;64561;44.018;10.144;2023-02-21T04:05:44;102323.25;;;10.90;85.16
75886;BME280;64561;44.018;10.144;2023-02-21T04:08:11;102327.66;;;10.92;84.93
75886;BME280;64561;44.018;10.144;2023-02-21T04:10:38;102321.84;;;10.96;84.43
75886;BME280;64561;44.018;10.144;2023-02-21T04:13:19;102326.16;;;10.97;84.73
75886;BME280;64561;44.018;10.144;2023-02-21T04:15:48;102322.81;;;10.98;84.17
75886;BME280;64561;44.018;10.144;2023-02-21T04:18:15;102324.41;;;10.96;84.89
75886;BME280;64561;44.018;10.144;2023-02-21T04:20:43;102316.88;;;10.99;83.95
75886;BME280;64561;44.018;10.144;2023-02-21T04:23:17;102328.00;;;11.00;83.63
75886;BME280;64561;44.018;10.144;2023-02-21T04:25:44;102321.19;;;11.01;83.66
75886;BME280;64561;44.018;10.144;2023-02-21T04:28:15;102321.13;;;10.99;83.67
75886;BME280;64561;44.018;10.144;2023-02-21T04:30:42;102316.88;;;10.99;83.74
75886;BME280;64561;44.018;10.144;2023-02-21T04:33:09;102327.13;;;10.99;83.41
75886;BME280;64561;44.018;10.144;2023-02-21T04:35:36;102314.22;;;10.98;83.56
75886;BME280;64561;44.018;10.144;2023-02-21T04:38:11;102310.00;;;10.98;83.35
75886;BME280;64561;44.018;10.144;2023-02-21T04:40:38;102308.47;;;11.02;83.48
75886;BME280;64561;44.018;10.144;2023-02-21T04:43:05;102306.84;;;11.04;83.40
75886;BME280;64561;44.018;10.144;2023-02-21T04:45:32;102303.41;;;11.04;82.98
75886;BME280;64561;44.018;10.144;2023-02-21T04:47:59;102295.84;;;11.07;82.75
75886;BME280;64561;44.018;10.144;2023-02-21T04:50:26;102299.97;;;11.03;82.22
75886;BME280;64561;44.018;10.144;2023-02-21T04:52:54;102298.94;;;10.99;82.51
75886;BME280;64561;44.018;10.144;2023-02-21T04:55:20;102294.78;;;11.02;82.44
75886;BME280;64561;44.018;10.144;2023-02-21T04:57:48;102291.25;;;10.99;82.20
75886;BME280;64561;44.018;10.144;2023-02-21T05:00:15;102290.53;;;11.02;82.57
75886;BME280;64561;44.018;10.144;2023-02-21T05:02:43;102282.91;;;11.04;82.53
75886;BME280;64561;44.018;10.144;2023-02-21T05:05:10;102287.25;;;11.05;83.18
75886;BME280;64561;44.018;10.144;2023-02-21T05:07:37;102282.03;;;11.03;82.45
75886;BME280;64561;44.018;10.144;2023-02-21T05:10:06;102283.03;;;11.07;82.36
75886;BME280;64561;44.018;10.144;2023-02-21T05:12:36;102282.25;;;11.08;82.23
75886;BME280;64561;44.018;10.144;2023-02-21T05:15:06;102280.63;;;11.10;82.50
75886;BME280;64561;44.018;10.144;2023-02-21T05:17:34;102271.28;;;11.10;82.32
75886;BME280;64561;44.018;10.144;2023-02-21T05:20:01;102267.91;;;11.11;82.53
75886;BME280;64561;44.018;10.144;2023-02-21T05:22:28;102264.50;;;11.12;82.97
75886;BME280;64561;44.018;10.144;2023-02-21T05:24:54;102269.59;;;11.11;83.15
75886;BME280;64561;44.018;10.144;2023-02-21T05:27:21;102268.75;;;11.12;82.67
75886;BME280;64561;44.018;10.144;2023-02-21T05:29:52;102262.78;;;11.11;83.23
75886;BME280;64561;44.018;10.144;2023-02-21T05:32:20;102256.50;;;11.05;83.10
75886;BME280;64561;44.018;10.144;2023-02-21T05:34:47;102263.97;;;11.00;83.64
75886;BME280;64561;44.018;10.144;2023-02-21T05:37:16;102263.38;;;11.06;83.53
75886;BME280;64561;44.018;10.144;2023-02-21T05:39:43;102258.38;;;11.09;83.45
75886;BME280;64561;44.018;10.144;2023-02-21T05:42:09;102251.66;;;11.11;83.83
75886;BME280;64561;44.018;10.144;2023-02-21T05:44:36;102247.44;;;11.13;83.59
75886;BME280;64561;44.018;10.144;2023-02-21T05:47:03;102249.16;;;11.12;83.45
75886;BME280;64561;44.018;10.144;2023-02-21T05:49:32;102251.56;;;11.09;83.52
75886;BME280;64561;44.018;10.144;2023-02-21T05:51:59;102252.38;;;11.08;83.59
75886;BME280;64561;44.018;10.144;2023-02-21T05:54:26;102252.84;;;10.99;83.74
75886;BME280;64561;44.018;10.144;2023-02-21T05:56:53;102248.31;;;10.94;84.06
75886;BME280;64561;44.018;10.144;2023-02-21T05:59:20;102246.50;;;10.91;84.36
75886;BME280;64561;44.018;10.144;2023-02-21T06:01:47;102237.94;;;10.91;84.24
75886;BME280;64561;44.018;10.144;2023-02-21T06:04:15;102246.84;;;10.99;84.09
75886;BME280;64561;44.018;10.144;2023-02-21T06:06:43;102247.84;;;11.03;84.17
75886;BME280;64561;44.018;10.144;2023-02-21T06:09:10;102244.63;;;11.07;84.10
75886;BME280;64561;44.018;10.144;2023-02-21T06:11:38;102248.13;;;11.09;84.07
75886;BME280;64561;44.018;10.144;2023-02-21T06:14:12;102245.72;;;11.12;83.93
75886;BME280;64561;44.018;10.144;2023-02-21T06:16:39;102250.28;;;11.19;83.71
75886;BME280;64561;44.018;10.144;2023-02-21T06:19:07;102256.38;;;11.21;83.98
75886;BME280;64561;44.018;10.144;2023-02-21T06:21:34;102257.09;;;11.18;83.77
75886;BME280;64561;44.018;10.144;2023-02-21T06:24:02;102250.00;;;11.13;84.05
75886;BME280;64561;44.018;10.144;2023-02-21T06:26:29;102254.06;;;11.08;84.46
75886;BME280;64561;44.018;10.144;2023-02-21T06:28:56;102251.44;;;11.06;84.28
75886;BME280;64561;44.018;10.144;2023-02-21T06:31:23;102254.06;;;11.08;84.04
75886;BME280;64561;44.018;10.144;2023-02-21T06:33:51;102251.66;;;11.11;84.30
75886;BME280;64561;44.018;10.144;2023-02-21T06:36:22;102257.69;;;11.13;84.34
75886;BME280;64561;44.018;10.144;2023-02-21T06:38:51;102252.66;;;11.14;84.32
75886;BME280;64561;44.018;10.144;2023-02-21T06:41:27;102258.75;;;11.16;84.26
75886;BME280;64561;44.018;10.144;2023-02-21T06:43:55;102258.66;;;11.15;84.12
75886;BME280;64561;44.018;10.144;2023-02-21T06:46:25;102266.19;;;11.12;84.27
75886;BME280;64561;44.018;10.144;2023-02-21T06:48:52;102259.13;;;11.06;84.41
75886;BME280;64561;44.018;10.144;2023-02-21T06:51:19;102266.06;;;11.09;84.41
75886;BME280;64561;44.018;10.144;2023-02-21T06:53:48;102270.38;;;11.10;84.19
75886;BME280;64561;44.018;10.144;2023-02-21T06:56:15;102271.75;;;11.21;83.61
75886;BME280;64561;44.018;10.144;2023-02-21T06:58:42;102274.38;;;11.23;83.48
75886;BME280;64561;44.018;10.144;2023-02-21T07:01:09;102275.16;;;11.21;83.88
75886;BME280;64561;44.018;10.144;2023-02-21T07:03:40;102278.41;;;11.17;83.64
75886;BME280;64561;44.018;10.144;2023-02-21T07:06:09;102267.28;;;11.17;83.53
75886;BME280;64561;44.018;10.144;2023-02-21T07:08:36;102269.19;;;11.21;83.45
75886;BME280;64561;44.018;10.144;2023-02-21T07:11:03;102279.69;;;11.27;83.74
75886;BME280;64561;44.018;10.144;2023-02-21T07:13:31;102278.00;;;11.28;84.25
75886;BME280;64561;44.018;10.144;2023-02-21T07:16:00;102275.44;;;11.28;84.56
75886;BME280;64561;44.018;10.144;2023-02-21T07:18:27;102285.97;;;11.34;84.39
75886;BME280;64561;44.018;10.144;2023-02-21T07:20:54;102277.41;;;11.33;84.41
75886;BME280;64561;44.018;10.144;2023-02-21T07:23:21;102282.66;;;11.36;84.44
75886;BME280;64561;44.018;10.144;2023-02-21T07:25:48;102281.31;;;11.44;84.24
75886;BME280;64561;44.018;10.144;2023-02-21T07:28:16;102280.31;;;11.41;84.54
75886;BME280;64561;44.018;10.144;2023-02-21T07:30:43;102277.81;;;11.42;84.69
75886;BME280;64561;44.018;10.144;2023-02-21T07:33:09;102272.69;;;11.42;84.75
75886;BME280;64561;44.018;10.144;2023-02-21T07:35:36;102269.25;;;11.42;84.44
75886;BME280;64561;44.018;10.144;2023-02-21T07:38:03;102272.75;;;11.44;84.37
75886;BME280;64561;44.018;10.144;2023-02-21T07:40:30;102269.50;;;11.48;84.35
75886;BME280;64561;44.018;10.144;2023-02-21T07:42:57;102270.59;;;11.53;84.41
75886;BME280;64561;44.018;10.144;2023-02-21T07:45:24;102266.44;;;11.55;84.33
75886;BME280;64561;44.018;10.144;2023-02-21T07:47:50;102270.03;;;11.60;84.33
75886;BME280;64561;44.018;10.144;2023-02-21T07:50:18;102258.03;;;11.59;84.35
75886;BME280;64561;44.018;10.144;2023-02-21T07:52:46;102264.31;;;11.66;84.34
75886;BME280;64561;44.018;10.144;2023-02-21T07:55:13;102262.69;;;11.68;84.36
75886;BME280;64561;44.018;10.144;2023-02-21T07:57:40;102268.06;;;11.74;84.16
75886;BME280;64561;44.018;10.144;2023-02-21T08:00:08;102267.22;;;11.74;84.17
75886;BME280;64561;44.018;10.144;2023-02-21T08:02:46;102256.19;;;11.76;84.00
75886;BME280;64561;44.018;10.144;2023-02-21T08:05:15;102268.34;;;11.80;83.81
75886;BME280;64561;44.018;10.144;2023-02-21T08:07:42;102265.06;;;11.84;83.14
75886;BME280;64561;44.018;10.144;2023-02-21T08:10:10;102262.81;;;11.90;82.88
75886;BME280;64561;44.018;10.144;2023-02-21T08:12:37;102268.06;;;11.94;82.82
75886;BME280;64561;44.018;10.144;2023-02-21T08:15:04;102263.88;;;11.96;82.93
75886;BME280;64561;44.018;10.144;2023-02-21T08:17:32;102264.06;;;12.00;82.93
75886;BME280;64561;44.018;10.144;2023-02-21T08:19:59;102259.75;;;11.99;82.84
75886;BME280;64561;44.018;10.144;2023-02-21T08:22:25;102269.25;;;12.02;82.66
75886;BME280;64561;44.018;10.144;2023-02-21T08:24:52;102265.81;;;12.01;82.19
75886;BME280;64561;44.018;10.144;2023-02-21T08:27:19;102264.13;;;12.02;82.36
75886;BME280;64561;44.018;10.144;2023-02-21T08:29:49;102262.44;;;12.02;82.25
75886;BME280;64561;44.018;10.144;2023-02-21T08:32:17;102264.25;;;12.05;82.12
75886;BME280;64561;44.018;10.144;2023-02-21T08:34:48;102253.91;;;12.03;82.24
75886;BME280;64561;44.018;10.144;2023-02-21T08:37:15;102262.50;;;12.04;82.57
75886;BME280;64561;44.018;10.144;2023-02-21T08:39:49;102260.88;;;12.06;82.19
75886;BME280;64561;44.018;10.144;2023-02-21T08:42:18;102255.81;;;12.07;81.90
75886;BME280;64561;44.018;10.144;2023-02-21T08:44:46;102263.69;;;12.12;81.74
75886;BME280;64561;44.018;10.144;2023-02-21T08:47:14;102259.69;;;12.19;81.40
75886;BME280;64561;44.018;10.144;2023-02-21T08:49:45;102254.00;;;12.26;80.96
75886;BME280;64561;44.018;10.144;2023-02-21T08:52:14;102256.09;;;12.36;80.11
75886;BME280;64561;44.018;10.144;2023-02-21T08:54:46;102247.00;;;12.44;79.91
75886;BME280;64561;44.018;10.144;2023-02-21T08:57:13;102261.38;;;12.62;79.60
75886;BME280;64561;44.018;10.144;2023-02-21T08:59:41;102254.88;;;12.70;80.20
75886;BME280;64561;44.018;10.144;2023-02-21T09:02:24;102263.44;;;12.70;79.13
75886;BME280;64561;44.018;10.144;2023-02-21T09:04:51;102264.72;;;12.59;79.67
75886;BME280;64561;44.018;10.144;2023-02-21T09:07:20;102264.72;;;12.59;80.29
75886;BME280;64561;44.018;10.144;2023-02-21T09:09:47;102273.03;;;12.53;80.89
75886;BME280;64561;44.018;10.144;2023-02-21T09:12:15;102265.84;;;12.45;81.34
75886;BME280;64561;44.018;10.144;2023-02-21T09:14:43;102267.44;;;12.41;80.91
75886;BME280;64561;44.018;10.144;2023-02-21T09:17:12;102267.31;;;12.38;81.01
75886;BME280;64561;44.018;10.144;2023-02-21T09:19:39;102272.28;;;12.33;80.55
75886;BME280;64561;44.018;10.144;2023-02-21T09:22:09;102265.25;;;12.29;80.17
75886;BME280;64561;44.018;10.144;2023-02-21T09:24:37;102272.94;;;12.29;79.85
75886;BME280;64561;44.018;10.144;2023-02-21T09:27:05;102274.75;;;12.32;79.30
75886;BME280;64561;44.018;10.144;2023-02-21T09:29:33;102267.88;;;12.31;78.05
75886;BME280;64561;44.018;10.144;2023-02-21T09:32:12;102271.22;;;12.28;78.08
75886;BME280;64561;44.018;10.144;2023-02-21T09:34:39;102270.38;;;12.29;78.91
75886;BME280;64561;44.018;10.144;2023-02-21T09:37:07;102273.81;;;12.30;78.42
75886;BME280;64561;44.018;10.144;2023-02-21T09:39:36;102274.63;;;12.29;78.34
75886;BME280;64561;44.018;10.144;2023-02-21T09:42:04;102270.34;;;12.28;78.58
75886;BME280;64561;44.018;10.144;2023-02-21T09:44:31;102280.59;;;12.28;78.63
75886;BME280;64561;44.018;10.144;2023-02-21T09:47:04;102270.47;;;12.31;78.67
75886;BME280;64561;44.018;10.144;2023-02-21T09:49:38;102277.34;;;12.32;78.93
75886;BME280;64561;44.018;10.144;2023-02-21T09:52:17;102273.16;;;12.34;78.78
75886;BME280;64561;44.018;10.144;2023-02-21T09:54:54;102271.75;;;12.42;78.50
75886;BME280;64561;44.018;10.144;2023-02-21T09:57:23;102275.00;;;12.38;78.62
75886;BME280;64561;44.018;10.144;2023-02-21T09:59:50;102267.25;;;12.37;78.75
75886;BME280;64561;44.018;10.144;2023-02-21T10:02:50;102272.31;;;12.35;79.54
75886;BME280;64561;44.018;10.144;2023-02-21T10:05:38;102265.50;;;12.35;79.40
75886;BME280;64561;44.018;10.144;2023-02-21T10:08:33;102268.06;;;12.35;79.71
75886;BME280;64561;44.018;10.144;2023-02-21T10:19:21;102263.78;;;12.36;78.24
75886;BME280;64561;44.018;10.144;2023-02-21T10:21:53;102267.19;;;12.35;77.93
75886;BME280;64561;44.018;10.144;2023-02-21T10:24:25;102264.81;;;12.40;78.20
75886;BME280;64561;44.018;10.144;2023-02-21T10:27:02;102264.97;;;12.44;77.38
75886;BME280;64561;44.018;10.144;2023-02-21T10:32:18;102262.34;;;12.64;77.95
75886;BME280;64561;44.018;10.144;2023-02-21T10:34:46;102264.25;;;12.69;78.68
75886;BME280;64561;44.018;10.144;2023-02-21T10:40:24;102246.53;;;12.54;79.44
75886;BME280;64561;44.018;10.144;2023-02-21T10:45:52;102248.94;;;12.50;79.69
75886;BME280;64561;44.018;10.144;2023-02-21T10:48:24;102248.19;;;12.52;79.33
75886;BME280;64561;44.018;10.144;2023-02-21T10:51:12;102242.13;;;12.50;78.80
75886;BME280;64561;44.018;10.144;2023-02-21T10:53:43;102239.66;;;12.53;77.49
75886;BME280;64561;44.018;10.144;2023-02-21T10:59:00;102231.13;;;12.54;75.90
75886;BME280;64561;44.018;10.144;2023-02-21T11:04:21;102221.38;;;12.67;75.09
75886;BME280;64561;44.018;10.144;2023-02-21T11:06:50;102216.72;;;12.80;74.19
75886;BME280;64561;44.018;10.144;2023-02-21T11:09:28;102210.94;;;12.86;73.89
75886;BME280;64561;44.018;10.144;2023-02-21T11:14:43;102212.25;;;12.99;73.32
75886;BME280;64561;44.018;10.144;2023-02-21T11:17:21;102210.41;;;12.95;73.63
75886;BME280;64561;44.018;10.144;2023-02-21T11:22:40;102200.13;;;12.95;73.81
75886;BME280;64561;44.018;10.144;2023-02-21T11:27:38;102198.50;;;12.97;72.75
75886;BME280;64561;44.018;10.144;2023-02-21T11:30:20;102194.91;;;12.93;73.13
75886;BME280;64561;44.018;10.144;2023-02-21T11:32:51;102196.63;;;12.93;73.18
75886;BME280;64561;44.018;10.144;2023-02-21T11:37:54;102188.16;;;12.95;71.78
75886;BME280;64561;44.018;10.144;2023-02-21T11:40:24;102183.66;;;12.90;72.04
75886;BME280;64561;44.018;10.144;2023-02-21T11:51:43;102181.38;;;12.97;73.73
75886;BME280;64561;44.018;10.144;2023-02-21T11:54:12;102173.59;;;12.96;74.83
75886;BME280;64561;44.018;10.144;2023-02-21T12:27:41;102143.72;;;12.98;74.38
75886;BME280;64561;44.018;10.144;2023-02-21T12:33:12;102137.06;;;13.03;73.10
75886;BME280;64561;44.018;10.144;2023-02-21T12:49:25;102119.66;;;12.96;73.69
75886;BME280;64561;44.018;10.144;2023-02-21T12:52:03;102112.81;;;12.96;73.60
75886;BME280;64561;44.018;10.144;2023-02-21T12:54:41;102108.47;;;12.94;73.29
75886;BME280;64561;44.018;10.144;2023-02-21T12:57:13;102106.81;;;12.96;73.41
75886;BME280;64561;44.018;10.144;2023-02-21T13:02:18;102105.22;;;12.99;72.46
75886;BME280;64561;44.018;10.144;2023-02-21T13:05:02;102107.97;;;13.04;72.66
75886;BME280;64561;44.018;10.144;2023-02-21T13:07:45;102091.66;;;13.03;71.98
75886;BME280;64561;44.018;10.144;2023-02-21T13:10:21;102093.38;;;13.03;72.82
75886;BME280;64561;44.018;10.144;2023-02-21T13:12:56;102079.91;;;13.10;72.82
75886;BME280;64561;44.018;10.144;2023-02-21T13:15:28;102085.41;;;13.21;72.49
75886;BME280;64561;44.018;10.144;2023-02-21T13:20:23;102079.22;;;13.16;73.09
75886;BME280;64561;44.018;10.144;2023-02-21T13:28:57;102086.50;;;13.27;72.93
75886;BME280;64561;44.018;10.144;2023-02-21T13:31:27;102077.72;;;13.22;72.48
75886;BME280;64561;44.018;10.144;2023-02-21T13:33:57;102068.28;;;13.21;72.19
75886;BME280;64561;44.018;10.144;2023-02-21T13:36:29;102075.81;;;13.17;72.51
75886;BME280;64561;44.018;10.144;2023-02-21T13:41:40;102066.72;;;13.25;73.23
75886;BME280;64561;44.018;10.144;2023-02-21T13:44:30;102064.84;;;13.21;73.79
75886;BME280;64561;44.018;10.144;2023-02-21T13:49:52;102057.31;;;13.25;73.22
75886;BME280;64561;44.018;10.144;2023-02-21T14:10:52;102033.75;;;13.13;74.26
75886;BME280;64561;44.018;10.144;2023-02-21T14:13:34;102034.56;;;13.12;73.77
75886;BME280;64561;44.018;10.144;2023-02-21T14:21:13;102022.50;;;13.10;73.30
75886;BME280;64561;44.018;10.144;2023-02-21T14:23:48;102022.63;;;13.14;73.40
75886;BME280;64561;44.018;10.144;2023-02-21T14:29:40;102014.72;;;13.08;73.59
75886;BME280;64561;44.018;10.144;2023-02-21T14:40:17;102015.66;;;13.10;74.18
75886;BME280;64561;44.018;10.144;2023-02-21T14:54:58;102000.06;;;13.05;74.42
75886;BME280;64561;44.018;10.144;2023-02-21T15:00:17;102003.56;;;13.08;74.53
75886;BME280;64561;44.018;10.144;2023-02-21T15:03:21;102007.91;;;13.09;74.84
75886;BME280;64561;44.018;10.144;2023-02-21T15:06:09;102011.25;;;13.06;75.05
75886;BME280;64561;44.018;10.144;2023-02-21T15:08:41;102009.47;;;13.05;75.52
75886;BME280;64561;44.018;10.144;2023-02-21T15:13:45;102009.16;;;12.94;75.66
75886;BME280;64561;44.018;10.144;2023-02-21T15:16:15;102007.44;;;12.95;75.88
75886;BME280;64561;44.018;10.144;2023-02-21T15:18:59;102008.16;;;12.91;76.11
75886;BME280;64561;44.018;10.144;2023-02-21T15:21:27;102009.84;;;12.90;76.44
75886;BME280;64561;44.018;10.144;2023-02-21T15:24:07;102012.31;;;12.87;76.95
75886;BME280;64561;44.018;10.144;2023-02-21T15:26:38;102011.34;;;12.84;77.12
75886;BME280;64561;44.018;10.144;2023-02-21T15:29:07;102003.50;;;12.79;77.42
75886;BME280;64561;44.018;10.144;2023-02-21T15:34:18;102004.91;;;12.71;78.12
75886;BME280;64561;44.018;10.144;2023-02-21T15:36:50;102005.84;;;12.73;78.38
75886;BME280;64561;44.018;10.144;2023-02-21T15:39:25;102005.66;;;12.67;78.60
75886;BME280;64561;44.018;10.144;2023-02-21T15:41:54;102012.31;;;12.62;78.76
75886;BME280;64561;44.018;10.144;2023-02-21T15:44:30;102001.97;;;12.60;78.75
75886;BME280;64561;44.018;10.144;2023-02-21T15:47:11;101997.66;;;12.59;79.02
75886;BME280;64561;44.018;10.144;2023-02-21T15:49:45;102005.44;;;12.61;79.25
75886;BME280;64561;44.018;10.144;2023-02-21T15:52:45;102001.97;;;12.60;79.57
75886;BME280;64561;44.018;10.144;2023-02-21T15:55:24;102001.94;;;12.58;79.33
75886;BME280;64561;44.018;10.144;2023-02-21T15:58:01;101994.25;;;12.60;79.27
75886;BME280;64561;44.018;10.144;2023-02-21T16:00:39;102000.31;;;12.61;79.40
75886;BME280;64561;44.018;10.144;2023-02-21T16:03:30;101995.09;;;12.59;79.44
75886;BME280;64561;44.018;10.144;2023-02-21T16:11:39;101996.84;;;12.60;79.29
75886;BME280;64561;44.018;10.144;2023-02-21T16:14:38;101994.25;;;12.60;79.15
75886;BME280;64561;44.018;10.144;2023-02-21T16:19:44;101994.22;;;12.58;79.11
75886;BME280;64561;44.018;10.144;2023-02-21T16:22:34;101996.84;;;12.60;79.30
75886;BME280;64561;44.018;10.144;2023-02-21T16:25:23;101998.50;;;12.58;79.46
75886;BME280;64561;44.018;10.144;2023-02-21T16:27:57;101998.44;;;12.56;79.58
75886;BME280;64561;44.018;10.144;2023-02-21T16:30:29;101990.69;;;12.55;79.57